Terminal Aerodrome Forecast
Issued by NWS

Home | Current Version | Previous Version | Text Only | Print | Product List | Glossary On
Versions: 1 2 3 4 5 6 7 8 9 10 11 12 13 14 15 16 17 18 19 20
000
FTUS44 KHGX 281734
TAFUTS
TAF
KUTS 281734Z 2818/2918 12005KT P6SM SCT025 BKN040
     FM282100 12008KT P6SM SCT045
     FM290100 VRB03KT P6SM FEW100
     FM290900 11003KT 4SM BR SCT006
     FM291330 VRB04KT P6SM SCT007
     FM291600 20006KT P6SM FEW015 SCT035=

USA.gov is the U.S. government's official web portal to all federal, state and local government web resources and services.